sensor_id;sensor_type;location;lat;lon;timestamp;pressure;altitude;pressure_sealevel;temperature;humidity
72857;BME280;62742;52.136;4.500;2022-11-20T00:01:23;101517.50;;;-1.81;84.43
72857;BME280;62742;52.136;4.500;2022-11-20T00:03:53;101524.75;;;-1.92;85.25
72857;BME280;62742;52.136;4.500;2022-11-20T00:06:22;101521.94;;;-1.97;85.70
72857;BME280;62742;52.136;4.500;2022-11-20T00:08:50;101529.34;;;-2.04;86.05
72857;BME280;62742;52.136;4.500;2022-11-20T00:11:19;101533.56;;;-2.05;86.49
72857;BME280;62742;52.136;4.500;2022-11-20T00:13:50;101533.66;;;-2.03;86.87
72857;BME280;62742;52.136;4.500;2022-11-20T00:16:21;101531.22;;;-2.00;86.14
72857;BME280;62742;52.136;4.500;2022-11-20T00:18:49;101541.28;;;-2.05;86.21
72857;BME280;62742;52.136;4.500;2022-11-20T00:21:19;101537.31;;;-1.98;85.63
72857;BME280;62742;52.136;4.500;2022-11-20T00:23:49;101525.81;;;-2.07;85.49
72857;BME280;62742;52.136;4.500;2022-11-20T00:26:18;101516.00;;;-1.96;85.12
72857;BME280;62742;52.136;4.500;2022-11-20T00:28:54;101512.94;;;-2.07;85.35
72857;BME280;62742;52.136;4.500;2022-11-20T00:31:23;101519.41;;;-2.15;85.64
72857;BME280;62742;52.136;4.500;2022-11-20T00:33:51;101512.56;;;-2.14;85.52
72857;BME280;62742;52.136;4.500;2022-11-20T00:36:20;101526.03;;;-2.20;86.52
72857;BME280;62742;52.136;4.500;2022-11-20T00:38:52;101517.41;;;-2.20;86.88
72857;BME280;62742;52.136;4.500;2022-11-20T00:41:24;101514.72;;;-2.23;86.27
72857;BME280;62742;52.136;4.500;2022-11-20T00:43:53;101512.06;;;-2.25;86.15
72857;BME280;62742;52.136;4.500;2022-11-20T00:46:23;101502.66;;;-2.24;86.88
72857;BME280;62742;52.136;4.500;2022-11-20T00:48:51;101500.00;;;-2.26;86.93
72857;BME280;62742;52.136;4.500;2022-11-20T00:51:21;101500.81;;;-2.27;86.70
72857;BME280;62742;52.136;4.500;2022-11-20T00:53:49;101494.19;;;-2.22;86.64
72857;BME280;62742;52.136;4.500;2022-11-20T00:56:18;101492.13;;;-2.29;86.15
72857;BME280;62742;52.136;4.500;2022-11-20T00:58:47;101494.91;;;-2.24;85.53
72857;BME280;62742;52.136;4.500;2022-11-20T01:01:19;101509.41;;;-2.27;85.45
72857;BME280;62742;52.136;4.500;2022-11-20T01:03:51;101514.34;;;-2.31;85.68
72857;BME280;62742;52.136;4.500;2022-11-20T01:06:25;101507.28;;;-2.35;86.12
72857;BME280;62742;52.136;4.500;2022-11-20T01:08:56;101506.34;;;-2.37;85.53
72857;BME280;62742;52.136;4.500;2022-11-20T01:11:27;101507.28;;;-2.35;86.44
72857;BME280;62742;52.136;4.500;2022-11-20T01:13:56;101503.78;;;-2.37;86.12
72857;BME280;62742;52.136;4.500;2022-11-20T01:16:27;101503.31;;;-2.47;86.06
72857;BME280;62742;52.136;4.500;2022-11-20T01:19:04;101500.16;;;-2.41;85.94
72857;BME280;62742;52.136;4.500;2022-11-20T01:21:35;101495.06;;;-2.39;86.22
72857;BME280;62742;52.136;4.500;2022-11-20T01:24:04;101495.44;;;-2.50;86.78
72857;BME280;62742;52.136;4.500;2022-11-20T01:26:36;101486.53;;;-2.56;87.12
72857;BME280;62742;52.136;4.500;2022-11-20T01:29:05;101484.88;;;-2.56;87.46
72857;BME280;62742;52.136;4.500;2022-11-20T01:31:34;101477.97;;;-2.57;87.60
72857;BME280;62742;52.136;4.500;2022-11-20T01:34:06;101476.78;;;-2.64;86.89
72857;BME280;62742;52.136;4.500;2022-11-20T01:36:36;101487.00;;;-2.65;87.61
72857;BME280;62742;52.136;4.500;2022-11-20T01:39:07;101482.66;;;-2.66;87.04
72857;BME280;62742;52.136;4.500;2022-11-20T01:41:38;101492.88;;;-2.68;86.68
72857;BME280;62742;52.136;4.500;2022-11-20T01:44:45;101487.97;;;-2.63;87.61
72857;BME280;62742;52.136;4.500;2022-11-20T01:47:21;101487.16;;;-2.62;86.96
72857;BME280;62742;52.136;4.500;2022-11-20T01:50:13;101482.59;;;-2.68;87.46
72857;BME280;62742;52.136;4.500;2022-11-20T01:52:54;101487.44;;;-2.74;87.75
72857;BME280;62742;52.136;4.500;2022-11-20T01:55:34;101485.72;;;-2.73;87.95
72857;BME280;62742;52.136;4.500;2022-11-20T01:58:06;101478.75;;;-2.76;87.43
72857;BME280;62742;52.136;4.500;2022-11-20T02:00:33;101484.69;;;-2.77;87.69
72857;BME280;62742;52.136;4.500;2022-11-20T02:03:11;101488.19;;;-2.76;87.61
72857;BME280;62742;52.136;4.500;2022-11-20T02:08:32;101487.88;;;-2.83;87.46
72857;BME280;62742;52.136;4.500;2022-11-20T02:10:59;101489.56;;;-2.83;86.84
72857;BME280;62742;52.136;4.500;2022-11-20T02:13:25;101499.63;;;-2.88;86.67
72857;BME280;62742;52.136;4.500;2022-11-20T02:18:51;101495.94;;;-2.93;87.10
72857;BME280;62742;52.136;4.500;2022-11-20T02:24:19;101491.38;;;-2.98;86.91
72857;BME280;62742;52.136;4.500;2022-11-20T02:27:14;101488.88;;;-2.97;86.47
72857;BME280;62742;52.136;4.500;2022-11-20T02:32:24;101487.63;;;-3.05;86.98
72857;BME280;62742;52.136;4.500;2022-11-20T02:34:53;101481.44;;;-3.09;87.68
72857;BME280;62742;52.136;4.500;2022-11-20T02:37:21;101483.44;;;-3.03;87.58
72857;BME280;62742;52.136;4.500;2022-11-20T02:39:50;101482.56;;;-3.04;87.00
72857;BME280;62742;52.136;4.500;2022-11-20T02:42:18;101477.16;;;-3.08;88.30
72857;BME280;62742;52.136;4.500;2022-11-20T02:44:44;101468.59;;;-3.09;88.06
72857;BME280;62742;52.136;4.500;2022-11-20T02:47:11;101462.53;;;-3.09;87.85
72857;BME280;62742;52.136;4.500;2022-11-20T02:49:37;101465.78;;;-3.13;87.70
72857;BME280;62742;52.136;4.500;2022-11-20T02:52:04;101461.44;;;-3.14;88.25
72857;BME280;62742;52.136;4.500;2022-11-20T02:54:31;101460.66;;;-3.13;87.38
72857;BME280;62742;52.136;4.500;2022-11-20T02:56:57;101455.50;;;-3.13;87.73
72857;BME280;62742;52.136;4.500;2022-11-20T02:59:24;101455.34;;;-3.16;87.19
72857;BME280;62742;52.136;4.500;2022-11-20T03:01:50;101455.19;;;-3.20;88.60
72857;BME280;62742;52.136;4.500;2022-11-20T03:04:16;101436.75;;;-3.29;88.09
72857;BME280;62742;52.136;4.500;2022-11-20T03:06:43;101442.84;;;-3.27;87.86
72857;BME280;62742;52.136;4.500;2022-11-20T03:09:09;101437.53;;;-3.30;87.55
72857;BME280;62742;52.136;4.500;2022-11-20T03:11:36;101435.06;;;-3.28;87.54
72857;BME280;62742;52.136;4.500;2022-11-20T03:14:03;101436.59;;;-3.32;87.56
72857;BME280;62742;52.136;4.500;2022-11-20T03:16:31;101432.28;;;-3.33;87.19
72857;BME280;62742;52.136;4.500;2022-11-20T03:18:59;101422.47;;;-3.40;87.25
72857;BME280;62742;52.136;4.500;2022-11-20T03:21:26;101416.69;;;-3.36;87.42
72857;BME280;62742;52.136;4.500;2022-11-20T03:23:53;101416.69;;;-3.36;87.18
72857;BME280;62742;52.136;4.500;2022-11-20T03:26:23;101422.72;;;-3.35;86.70
72857;BME280;62742;52.136;4.500;2022-11-20T03:28:56;101418.25;;;-3.40;87.59
72857;BME280;62742;52.136;4.500;2022-11-20T03:31:27;101424.41;;;-3.36;87.49
72857;BME280;62742;52.136;4.500;2022-11-20T03:33:56;101421.34;;;-3.45;86.82
72857;BME280;62742;52.136;4.500;2022-11-20T03:36:24;101422.72;;;-3.52;87.29
72857;BME280;62742;52.136;4.500;2022-11-20T03:38:54;101412.84;;;-3.44;87.99
72857;BME280;62742;52.136;4.500;2022-11-20T03:41:27;101406.25;;;-3.39;87.45
72857;BME280;62742;52.136;4.500;2022-11-20T03:44:01;101406.97;;;-3.42;87.74
72857;BME280;62742;52.136;4.500;2022-11-20T03:46:29;101407.72;;;-3.44;87.62
72857;BME280;62742;52.136;4.500;2022-11-20T03:48:57;101397.59;;;-3.41;87.12
72857;BME280;62742;52.136;4.500;2022-11-20T03:51:26;101398.16;;;-3.47;86.86
72857;BME280;62742;52.136;4.500;2022-11-20T03:53:59;101402.59;;;-3.44;87.49
72857;BME280;62742;52.136;4.500;2022-11-20T03:56:32;101404.91;;;-3.49;87.89
72857;BME280;62742;52.136;4.500;2022-11-20T03:59:00;101402.94;;;-3.54;87.04
72857;BME280;62742;52.136;4.500;2022-11-20T04:01:30;101402.94;;;-3.54;87.42
72857;BME280;62742;52.136;4.500;2022-11-20T04:03:58;101403.59;;;-3.59;87.44
72857;BME280;62742;52.136;4.500;2022-11-20T04:06:34;101389.06;;;-3.58;87.71
72857;BME280;62742;52.136;4.500;2022-11-20T04:09:03;101383.16;;;-3.55;87.24
72857;BME280;62742;52.136;4.500;2022-11-20T04:11:32;101374.44;;;-3.59;87.31
72857;BME280;62742;52.136;4.500;2022-11-20T04:14:05;101365.69;;;-3.63;87.45
72857;BME280;62742;52.136;4.500;2022-11-20T04:16:38;101364.81;;;-3.63;88.02
72857;BME280;62742;52.136;4.500;2022-11-20T04:19:05;101363.06;;;-3.64;87.60
72857;BME280;62742;52.136;4.500;2022-11-20T04:21:36;101350.47;;;-3.76;87.64
72857;BME280;62742;52.136;4.500;2022-11-20T04:24:02;101356.09;;;-3.67;88.71
72857;BME280;62742;52.136;4.500;2022-11-20T04:26:30;101353.53;;;-3.49;87.59
72857;BME280;62742;52.136;4.500;2022-11-20T04:28:57;101354.28;;;-3.51;86.74
72857;BME280;62742;52.136;4.500;2022-11-20T04:31:27;101355.59;;;-3.60;87.28
72857;BME280;62742;52.136;4.500;2022-11-20T04:33:58;101350.44;;;-3.60;87.25
72857;BME280;62742;52.136;4.500;2022-11-20T04:36:28;101349.25;;;-3.66;87.65
72857;BME280;62742;52.136;4.500;2022-11-20T04:39:00;101365.53;;;-3.66;88.40
72857;BME280;62742;52.136;4.500;2022-11-20T04:41:31;101355.25;;;-3.66;88.22
72857;BME280;62742;52.136;4.500;2022-11-20T04:44:02;101357.75;;;-3.67;87.91
72857;BME280;62742;52.136;4.500;2022-11-20T04:46:32;101356.00;;;-3.68;88.29
72857;BME280;62742;52.136;4.500;2022-11-20T04:49:00;101356.88;;;-3.68;88.12
72857;BME280;62742;52.136;4.500;2022-11-20T04:51:27;101358.19;;;-3.76;88.64
72857;BME280;62742;52.136;4.500;2022-11-20T04:53:54;101365.09;;;-3.75;88.64
72857;BME280;62742;52.136;4.500;2022-11-20T04:56:20;101368.53;;;-3.74;88.61
72857;BME280;62742;52.136;4.500;2022-11-20T04:58:47;101358.50;;;-3.70;89.13
72857;BME280;62742;52.136;4.500;2022-11-20T05:01:15;101353.53;;;-3.49;87.90
72857;BME280;62742;52.136;4.500;2022-11-20T05:03:44;101355.25;;;-3.31;85.19
72857;BME280;62742;52.136;4.500;2022-11-20T05:06:13;101357.53;;;-3.20;85.17
72857;BME280;62742;52.136;4.500;2022-11-20T05:08:41;101359.78;;;-3.44;85.92
72857;BME280;62742;52.136;4.500;2022-11-20T05:11:13;101363.38;;;-3.58;86.31
72857;BME280;62742;52.136;4.500;2022-11-20T05:13:42;101362.97;;;-3.66;87.01
72857;BME280;62742;52.136;4.500;2022-11-20T05:16:11;101375.34;;;-3.75;86.70
72857;BME280;62742;52.136;4.500;2022-11-20T05:18:42;101368.44;;;-3.76;86.75
72857;BME280;62742;52.136;4.500;2022-11-20T05:21:10;101371.84;;;-3.77;87.01
72857;BME280;62742;52.136;4.500;2022-11-20T05:23:37;101371.09;;;-3.74;87.47
72857;BME280;62742;52.136;4.500;2022-11-20T05:26:06;101386.22;;;-3.81;87.50
72857;BME280;62742;52.136;4.500;2022-11-20T05:28:34;101378.41;;;-3.82;87.25
72857;BME280;62742;52.136;4.500;2022-11-20T05:31:15;101364.75;;;-3.81;86.77
72857;BME280;62742;52.136;4.500;2022-11-20T05:33:44;101357.72;;;-3.85;87.31
72857;BME280;62742;52.136;4.500;2022-11-20T05:36:12;101354.03;;;-3.90;87.52
72857;BME280;62742;52.136;4.500;2022-11-20T05:38:41;101345.56;;;-3.89;87.68
72857;BME280;62742;52.136;4.500;2022-11-20T05:41:14;101342.41;;;-3.84;87.34
72857;BME280;62742;52.136;4.500;2022-11-20T05:43:43;101339.59;;;-3.54;85.12
72857;BME280;62742;52.136;4.500;2022-11-20T05:46:13;101329.88;;;-3.43;84.91
72857;BME280;62742;52.136;4.500;2022-11-20T05:48:42;101328.41;;;-3.02;83.72
72857;BME280;62742;52.136;4.500;2022-11-20T05:51:12;101334.47;;;-3.18;84.59
72857;BME280;62742;52.136;4.500;2022-11-20T05:53:42;101329.34;;;-3.00;84.14
72857;BME280;62742;52.136;4.500;2022-11-20T05:56:12;101343.38;;;-3.29;84.49
72857;BME280;62742;52.136;4.500;2022-11-20T05:58:41;101341.09;;;-3.41;85.94
72857;BME280;62742;52.136;4.500;2022-11-20T06:03:40;101324.72;;;-2.89;82.85
72857;BME280;62742;52.136;4.500;2022-11-20T06:06:09;101321.25;;;-2.90;82.67
72857;BME280;62742;52.136;4.500;2022-11-20T06:08:36;101307.91;;;-3.18;83.86
72857;BME280;62742;52.136;4.500;2022-11-20T06:11:07;101308.50;;;-3.42;85.58
72857;BME280;62742;52.136;4.500;2022-11-20T06:13:35;101312.00;;;-3.58;86.07
72857;BME280;62742;52.136;4.500;2022-11-20T06:16:02;101315.66;;;-3.71;86.89
72857;BME280;62742;52.136;4.500;2022-11-20T06:18:30;101314.06;;;-3.69;87.95
72857;BME280;62742;52.136;4.500;2022-11-20T06:21:07;101312.53;;;-3.65;88.23
72857;BME280;62742;52.136;4.500;2022-11-20T06:23:36;101296.59;;;-3.58;88.26
72857;BME280;62742;52.136;4.500;2022-11-20T06:26:08;101297.25;;;-3.62;88.17
72857;BME280;62742;52.136;4.500;2022-11-20T06:28:39;101312.88;;;-3.76;88.33
72857;BME280;62742;52.136;4.500;2022-11-20T06:31:06;101308.78;;;-3.72;88.81
72857;BME280;62742;52.136;4.500;2022-11-20T06:33:36;101300.25;;;-3.71;88.63
72857;BME280;62742;52.136;4.500;2022-11-20T06:36:03;101295.66;;;-3.60;88.48
72857;BME280;62742;52.136;4.500;2022-11-20T06:38:30;101299.53;;;-3.68;88.22
72857;BME280;62742;52.136;4.500;2022-11-20T06:40:57;101292.41;;;-3.74;88.03
72857;BME280;62742;52.136;4.500;2022-11-20T06:43:24;101295.94;;;-3.72;88.98
72857;BME280;62742;52.136;4.500;2022-11-20T06:45:55;101284.75;;;-3.38;86.36
72857;BME280;62742;52.136;4.500;2022-11-20T06:48:23;101287.78;;;-3.45;87.29
72857;BME280;62742;52.136;4.500;2022-11-20T06:50:52;101269.22;;;-3.22;86.57
72857;BME280;62742;52.136;4.500;2022-11-20T06:53:19;101273.53;;;-3.03;83.89
72857;BME280;62742;52.136;4.500;2022-11-20T06:55:46;101276.66;;;-3.28;85.72
72857;BME280;62742;52.136;4.500;2022-11-20T06:58:15;101278.31;;;-3.10;85.22
72857;BME280;62742;52.136;4.500;2022-11-20T07:00:42;101279.16;;;-3.29;85.78
72857;BME280;62742;52.136;4.500;2022-11-20T07:03:10;101282.75;;;-3.26;87.15
72857;BME280;62742;52.136;4.500;2022-11-20T07:05:37;101288.38;;;-3.15;86.54
72857;BME280;62742;52.136;4.500;2022-11-20T07:08:07;101277.91;;;-2.82;84.55
72857;BME280;62742;52.136;4.500;2022-11-20T07:10:35;101284.50;;;-2.69;83.47
72857;BME280;62742;52.136;4.500;2022-11-20T07:13:01;101277.97;;;-2.80;83.60
72857;BME280;62742;52.136;4.500;2022-11-20T07:15:28;101280.44;;;-3.02;85.67
72857;BME280;62742;52.136;4.500;2022-11-20T07:17:54;101285.88;;;-3.13;86.09
72857;BME280;62742;52.136;4.500;2022-11-20T07:20:21;101284.00;;;-3.17;87.23
72857;BME280;62742;52.136;4.500;2022-11-20T07:22:53;101285.09;;;-3.12;87.71
72857;BME280;62742;52.136;4.500;2022-11-20T07:25:22;101291.09;;;-3.12;87.44
72857;BME280;62742;52.136;4.500;2022-11-20T07:27:49;101286.84;;;-3.11;87.93
72857;BME280;62742;52.136;4.500;2022-11-20T07:30:16;101287.06;;;-3.07;88.64
72857;BME280;62742;52.136;4.500;2022-11-20T07:32:47;101273.59;;;-3.01;88.83
72857;BME280;62742;52.136;4.500;2022-11-20T07:35:16;101275.94;;;-2.68;87.97
72857;BME280;62742;52.136;4.500;2022-11-20T07:37:43;101265.81;;;-2.26;84.51
72857;BME280;62742;52.136;4.500;2022-11-20T07:40:15;101264.03;;;-2.08;83.29
72857;BME280;62742;52.136;4.500;2022-11-20T07:42:52;101270.88;;;-2.28;84.88
72857;BME280;62742;52.136;4.500;2022-11-20T07:45:21;101275.75;;;-2.53;85.91
72857;BME280;62742;52.136;4.500;2022-11-20T07:47:50;101280.44;;;-2.64;87.28
72857;BME280;62742;52.136;4.500;2022-11-20T07:50:17;101280.38;;;-2.66;87.74
72857;BME280;62742;52.136;4.500;2022-11-20T07:52:45;101271.44;;;-2.35;86.54
72857;BME280;62742;52.136;4.500;2022-11-20T07:55:12;101278.88;;;-2.41;86.79
72857;BME280;62742;52.136;4.500;2022-11-20T07:57:39;101273.63;;;-2.44;86.74
72857;BME280;62742;52.136;4.500;2022-11-20T08:00:07;101284.28;;;-2.15;85.64
72857;BME280;62742;52.136;4.500;2022-11-20T08:02:42;101286.53;;;-2.23;86.52
72857;BME280;62742;52.136;4.500;2022-11-20T08:05:09;101286.53;;;-2.23;87.33
72857;BME280;62742;52.136;4.500;2022-11-20T08:07:40;101282.03;;;-2.08;86.28
72857;BME280;62742;52.136;4.500;2022-11-20T08:10:11;101285.09;;;-1.76;84.98
72857;BME280;62742;52.136;4.500;2022-11-20T08:12:50;101274.97;;;-1.71;84.38
72857;BME280;62742;52.136;4.500;2022-11-20T08:15:37;101268.38;;;-1.64;84.99
72857;BME280;62742;52.136;4.500;2022-11-20T08:18:08;101257.13;;;-1.66;84.83
72857;BME280;62742;52.136;4.500;2022-11-20T08:20:39;101259.78;;;-1.86;86.10
72857;BME280;62742;52.136;4.500;2022-11-20T08:23:06;101270.44;;;-1.98;87.18
72857;BME280;62742;52.136;4.500;2022-11-20T08:25:35;101269.75;;;-1.94;87.96
72857;BME280;62742;52.136;4.500;2022-11-20T08:28:05;101274.47;;;-1.62;87.04
72857;BME280;62742;52.136;4.500;2022-11-20T08:30:34;101269.44;;;-1.59;86.37
72857;BME280;62742;52.136;4.500;2022-11-20T08:33:06;101265.22;;;-1.57;87.19
72857;BME280;62742;52.136;4.500;2022-11-20T08:35:35;101259.06;;;-1.61;87.32
72857;BME280;62742;52.136;4.500;2022-11-20T08:38:06;101256.31;;;-1.44;87.21
72857;BME280;62742;52.136;4.500;2022-11-20T08:40:33;101258.06;;;-1.43;87.24
72857;BME280;62742;52.136;4.500;2022-11-20T08:43:00;101258.03;;;-1.22;86.81
72857;BME280;62742;52.136;4.500;2022-11-20T08:45:26;101258.38;;;-1.13;86.42
72857;BME280;62742;52.136;4.500;2022-11-20T08:47:53;101247.78;;;-1.21;86.72
72857;BME280;62742;52.136;4.500;2022-11-20T08:50:19;101259.22;;;-1.14;86.51
72857;BME280;62742;52.136;4.500;2022-11-20T08:52:45;101257.91;;;-1.25;87.56
72857;BME280;62742;52.136;4.500;2022-11-20T08:55:12;101246.47;;;-1.09;87.60
72857;BME280;62742;52.136;4.500;2022-11-20T08:57:38;101248.69;;;-0.73;85.21
72857;BME280;62742;52.136;4.500;2022-11-20T09:00:06;101257.28;;;-0.97;86.53
72857;BME280;62742;52.136;4.500;2022-11-20T09:02:34;101258.09;;;-0.98;87.54
72857;BME280;62742;52.136;4.500;2022-11-20T09:05:00;101247.34;;;-0.86;87.63
72857;BME280;62742;52.136;4.500;2022-11-20T09:07:29;101251.84;;;-0.81;87.37
72857;BME280;62742;52.136;4.500;2022-11-20T09:09:56;101234.97;;;-0.48;85.64
72857;BME280;62742;52.136;4.500;2022-11-20T09:12:22;101228.91;;;-0.25;83.94
72857;BME280;62742;52.136;4.500;2022-11-20T09:14:48;101221.38;;;-0.44;85.23
72857;BME280;62742;52.136;4.500;2022-11-20T09:17:15;101228.88;;;-0.50;85.79
72857;BME280;62742;52.136;4.500;2022-11-20T09:19:41;101224.22;;;-0.61;86.64
72857;BME280;62742;52.136;4.500;2022-11-20T09:22:08;101222.13;;;-0.47;85.81
72857;BME280;62742;52.136;4.500;2022-11-20T09:24:35;101217.75;;;-0.49;86.37
72857;BME280;62742;52.136;4.500;2022-11-20T09:27:03;101214.28;;;-0.24;85.50
72857;BME280;62742;52.136;4.500;2022-11-20T09:29:31;101213.84;;;-0.12;84.30
72857;BME280;62742;52.136;4.500;2022-11-20T09:31:57;101217.25;;;-0.13;84.45
72857;BME280;62742;52.136;4.500;2022-11-20T09:34:24;101203.84;;;-0.03;83.68
72857;BME280;62742;52.136;4.500;2022-11-20T09:36:50;101196.94;;;-0.03;84.05
72857;BME280;62742;52.136;4.500;2022-11-20T09:39:16;101202.47;;;-0.17;84.77
72857;BME280;62742;52.136;4.500;2022-11-20T09:42:25;101191.31;;;0.09;84.46
72857;BME280;62742;52.136;4.500;2022-11-20T09:45:21;101183.34;;;0.03;85.59
72857;BME280;62742;52.136;4.500;2022-11-20T09:48:01;101178.34;;;0.08;85.31
72857;BME280;62742;52.136;4.500;2022-11-20T09:50:57;101189.22;;;-0.03;86.62
72857;BME280;62742;52.136;4.500;2022-11-20T09:56:34;101167.25;;;0.39;85.09
72857;BME280;62742;52.136;4.500;2022-11-20T09:59:06;101161.63;;;0.24;85.94
72857;BME280;62742;52.136;4.500;2022-11-20T10:01:40;101148.81;;;0.55;83.94
72857;BME280;62742;52.136;4.500;2022-11-20T10:04:19;101144.53;;;0.56;83.77
72857;BME280;62742;52.136;4.500;2022-11-20T10:06:48;101140.25;;;0.57;84.32
72857;BME280;62742;52.136;4.500;2022-11-20T10:09:36;101127.34;;;0.58;84.57
72857;BME280;62742;52.136;4.500;2022-11-20T10:12:16;101130.56;;;0.51;85.25
72857;BME280;62742;52.136;4.500;2022-11-20T10:23:54;101110.22;;;0.62;86.04
72857;BME280;62742;52.136;4.500;2022-11-20T10:26:48;101099.38;;;0.75;85.79
72857;BME280;62742;52.136;4.500;2022-11-20T10:29:34;101099.66;;;0.84;84.47
72857;BME280;62742;52.136;4.500;2022-11-20T10:32:18;101086.13;;;0.63;85.92
72857;BME280;62742;52.136;4.500;2022-11-20T10:37:23;101070.31;;;0.82;86.32
72857;BME280;62742;52.136;4.500;2022-11-20T10:40:14;101067.97;;;0.91;85.93
72857;BME280;62742;52.136;4.500;2022-11-20T10:42:56;101047.22;;;0.90;86.78
72857;BME280;62742;52.136;4.500;2022-11-20T10:47:54;101044.66;;;1.23;85.28
72857;BME280;62742;52.136;4.500;2022-11-20T10:57:38;101036.22;;;1.30;86.39
72857;BME280;62742;52.136;4.500;2022-11-20T11:00:10;101039.19;;;1.46;85.99
72857;BME280;62742;52.136;4.500;2022-11-20T11:02:52;101031.31;;;1.43;85.97
72857;BME280;62742;52.136;4.500;2022-11-20T11:05:41;101029.94;;;1.56;85.36
72857;BME280;62742;52.136;4.500;2022-11-20T11:08:18;101027.91;;;1.44;86.72
72857;BME280;62742;52.136;4.500;2022-11-20T11:10:57;101019.84;;;1.33;86.99
72857;BME280;62742;52.136;4.500;2022-11-20T11:13:29;101012.25;;;1.39;87.04
72857;BME280;62742;52.136;4.500;2022-11-20T11:15:57;101005.34;;;1.75;86.48
72857;BME280;62742;52.136;4.500;2022-11-20T11:18:29;100997.63;;;1.78;86.26
72857;BME280;62742;52.136;4.500;2022-11-20T11:21:02;100995.72;;;1.71;86.94
72857;BME280;62742;52.136;4.500;2022-11-20T11:26:20;100980.84;;;2.01;85.57
72857;BME280;62742;52.136;4.500;2022-11-20T11:29:02;100980.75;;;1.95;86.60
72857;BME280;62742;52.136;4.500;2022-11-20T11:31:34;100975.44;;;1.91;87.59
72857;BME280;62742;52.136;4.500;2022-11-20T11:34:12;100963.53;;;1.99;87.64
72857;BME280;62742;52.136;4.500;2022-11-20T11:36:40;100951.78;;;2.15;86.83
72857;BME280;62742;52.136;4.500;2022-11-20T11:39:14;100941.63;;;2.27;86.10
72857;BME280;62742;52.136;4.500;2022-11-20T11:41:43;100940.88;;;2.31;87.03
72857;BME280;62742;52.136;4.500;2022-11-20T11:44:18;100933.19;;;2.37;86.59
72857;BME280;62742;52.136;4.500;2022-11-20T11:47:11;100929.03;;;2.46;85.66
72857;BME280;62742;52.136;4.500;2022-11-20T11:49:47;100924.50;;;2.34;86.15
72857;BME280;62742;52.136;4.500;2022-11-20T11:52:18;100901.81;;;2.23;86.99
72857;BME280;62742;52.136;4.500;2022-11-20T11:54:53;100896.69;;;2.25;86.96
72857;BME280;62742;52.136;4.500;2022-11-20T12:00:20;100877.94;;;2.40;86.82
72857;BME280;62742;52.136;4.500;2022-11-20T12:02:57;100871.69;;;2.29;86.81
72857;BME280;62742;52.136;4.500;2022-11-20T12:05:49;100862.31;;;2.37;86.25
72857;BME280;62742;52.136;4.500;2022-11-20T12:08:27;100865.59;;;2.27;86.88
72857;BME280;62742;52.136;4.500;2022-11-20T12:11:11;100869.13;;;2.30;87.21
72857;BME280;62742;52.136;4.500;2022-11-20T12:16:15;100853.75;;;2.39;86.78
72857;BME280;62742;52.136;4.500;2022-11-20T12:18:47;100852.72;;;2.31;87.32
72857;BME280;62742;52.136;4.500;2022-11-20T12:30:08;100861.34;;;2.30;86.80
72857;BME280;62742;52.136;4.500;2022-11-20T12:39:02;100856.50;;;2.49;87.95
72857;BME280;62742;52.136;4.500;2022-11-20T12:51:28;100835.09;;;2.60;86.18
72857;BME280;62742;52.136;4.500;2022-11-20T12:57:29;100823.94;;;2.66;86.96
72857;BME280;62742;52.136;4.500;2022-11-20T13:00:18;100818.97;;;2.78;86.38
72857;BME280;62742;52.136;4.500;2022-11-20T13:08:36;100780.31;;;2.42;89.37
72857;BME280;62742;52.136;4.500;2022-11-20T13:16:38;100775.31;;;2.54;88.41
72857;BME280;62742;52.136;4.500;2022-11-20T13:19:13;100782.84;;;2.39;90.02
72857;BME280;62742;52.136;4.500;2022-11-20T13:21:46;100771.78;;;2.49;89.89
72857;BME280;62742;52.136;4.500;2022-11-20T13:26:45;100755.66;;;2.67;88.36
72857;BME280;62742;52.136;4.500;2022-11-20T13:29:18;100753.97;;;2.71;89.00
72857;BME280;62742;52.136;4.500;2022-11-20T13:31:47;100764.06;;;2.52;88.94
72857;BME280;62742;52.136;4.500;2022-11-20T13:34:25;100754.81;;;2.71;89.02
72857;BME280;62742;52.136;4.500;2022-11-20T13:36:55;100753.97;;;2.71;88.44
72857;BME280;62742;52.136;4.500;2022-11-20T13:39:27;100746.84;;;2.57;89.67
72857;BME280;62742;52.136;4.500;2022-11-20T13:42:18;100743.53;;;2.68;89.34
72857;BME280;62742;52.136;4.500;2022-11-20T13:44:54;100744.50;;;2.74;88.86
72857;BME280;62742;52.136;4.500;2022-11-20T13:47:26;100735.72;;;2.63;89.32
72857;BME280;62742;52.136;4.500;2022-11-20T13:49:55;100732.09;;;2.53;89.46
72857;BME280;62742;52.136;4.500;2022-11-20T14:01:33;100715.91;;;2.68;90.05
72857;BME280;62742;52.136;4.500;2022-11-20T14:04:09;100712.47;;;2.71;89.75
72857;BME280;62742;52.136;4.500;2022-11-20T14:06:46;100710.59;;;2.60;90.81
72857;BME280;62742;52.136;4.500;2022-11-20T14:09:31;100698.88;;;2.89;89.65
72857;BME280;62742;52.136;4.500;2022-11-20T14:11:59;100683.16;;;2.78;89.40
72857;BME280;62742;52.136;4.500;2022-11-20T14:14:30;100670.25;;;2.83;89.70
72857;BME280;62742;52.136;4.500;2022-11-20T14:20:03;100637.75;;;2.45;91.35
72857;BME280;62742;52.136;4.500;2022-11-20T14:22:32;100638.53;;;2.39;91.95
72857;BME280;62742;52.136;4.500;2022-11-20T14:25:06;100623.00;;;2.42;91.67
72857;BME280;62742;52.136;4.500;2022-11-20T14:27:55;100624.97;;;2.59;91.48
72857;BME280;62742;52.136;4.500;2022-11-20T14:30:50;100631.91;;;2.60;91.67
72857;BME280;62742;52.136;4.500;2022-11-20T14:33:17;100629.22;;;2.54;92.06
72857;BME280;62742;52.136;4.500;2022-11-20T14:35:48;100629.38;;;2.63;91.68
72857;BME280;62742;52.136;4.500;2022-11-20T14:38:20;100618.78;;;2.49;91.96
72857;BME280;62742;52.136;4.500;2022-11-20T14:40:50;100617.25;;;2.64;91.67
72857;BME280;62742;52.136;4.500;2022-11-20T14:43:21;100622.78;;;2.91;91.10
72857;BME280;62742;52.136;4.500;2022-11-20T14:45:58;100606.41;;;2.94;90.44
72857;BME280;62742;52.136;4.500;2022-11-20T14:48:31;100609.75;;;2.87;90.66
72857;BME280;62742;52.136;4.500;2022-11-20T14:51:02;100600.22;;;2.84;90.76
72857;BME280;62742;52.136;4.500;2022-11-20T14:53:29;100602.25;;;3.10;89.54
72857;BME280;62742;52.136;4.500;2022-11-20T14:55:58;100593.34;;;2.89;90.76